createdAt,value
2022-09-06T00:01:28.660Z,1.73
2022-09-06T00:03:56.272Z,2.03
2022-09-06T00:06:25.271Z,1.80
2022-09-06T00:08:52.675Z,1.92
2022-09-06T00:11:21.538Z,1.73
2022-09-06T00:13:50.345Z,1.90
2022-09-06T00:16:21.472Z,1.80
2022-09-06T00:18:49.941Z,1.90
2022-09-06T00:21:20.627Z,2.10
2022-09-06T00:23:48.279Z,1.80
2022-09-06T00:26:15.956Z,1.92
2022-09-06T00:28:49.819Z,1.80
2022-09-06T00:31:22.538Z,1.80
2022-09-06T00:33:51.172Z,1.70
2022-09-06T00:36:19.218Z,1.60
2022-09-06T00:38:47.472Z,1.70
2022-09-06T00:41:16.365Z,1.52
2022-09-06T00:43:44.915Z,1.95
2022-09-06T00:46:16.144Z,1.70
2022-09-06T00:48:45.768Z,1.60
2022-09-06T00:51:14.271Z,1.67
2022-09-06T00:53:41.849Z,1.60
2022-09-06T00:56:09.579Z,1.80
2022-09-06T00:58:39.488Z,1.40
2022-09-06T01:01:08.245Z,1.38
2022-09-06T01:03:41.140Z,1.48
2022-09-06T01:06:24.925Z,2.00
2022-09-06T01:09:03.035Z,1.52
2022-09-06T01:11:45.428Z,1.63
2022-09-06T01:14:22.292Z,1.70
2022-09-06T01:16:56.056Z,1.65
2022-09-06T01:19:53.535Z,1.67
2022-09-06T01:22:37.252Z,1.50
2022-09-06T01:25:19.708Z,1.67
2022-09-06T01:28:16.942Z,1.50
2022-09-06T01:30:50.134Z,1.48
2022-09-06T01:33:24.583Z,0.97
2022-09-06T01:35:55.851Z,1.33
2022-09-06T01:38:23.271Z,1.30
2022-09-06T01:40:51.311Z,1.45
2022-09-06T01:43:23.823Z,1.60
2022-09-06T01:45:58.967Z,1.60
2022-09-06T01:48:35.690Z,1.25
2022-09-06T01:51:14.378Z,1.35
2022-09-06T01:53:50.400Z,1.73
2022-09-06T01:56:26.461Z,1.30
2022-09-06T01:59:13.381Z,1.40
2022-09-06T02:01:49.058Z,1.60
2022-09-06T02:04:20.175Z,1.40
2022-09-06T02:06:51.658Z,1.52
2022-09-06T02:09:23.581Z,1.60
2022-09-06T02:11:54.046Z,1.70
2022-09-06T02:14:30.436Z,1.42
2022-09-06T02:16:58.667Z,1.80
2022-09-06T02:19:29.802Z,1.48
2022-09-06T02:22:00.593Z,1.80
2022-09-06T02:24:35.369Z,1.40
2022-09-06T02:27:02.842Z,1.60
2022-09-06T02:29:34.710Z,1.50
2022-09-06T02:32:05.112Z,1.58
2022-09-06T02:34:32.574Z,1.48
2022-09-06T02:37:01.187Z,1.73
2022-09-06T02:39:38.862Z,1.45
2022-09-06T02:42:09.205Z,1.40
2022-09-06T02:44:37.890Z,1.40
2022-09-06T02:47:05.738Z,1.55
2022-09-06T02:49:33.680Z,1.73
2022-09-06T02:52:01.095Z,1.55
2022-09-06T02:54:31.783Z,1.63
2022-09-06T02:56:59.215Z,1.40
2022-09-06T02:59:26.608Z,1.50
2022-09-06T03:01:55.271Z,1.60
2022-09-06T03:04:22.627Z,1.40
2022-09-06T03:06:50.040Z,1.70
2022-09-06T03:09:17.411Z,1.52
2022-09-06T03:11:45.654Z,1.40
2022-09-06T03:14:13.283Z,1.70
2022-09-06T03:16:43.682Z,1.50
2022-09-06T03:19:14.220Z,1.55
2022-09-06T03:21:43.229Z,1.67
2022-09-06T03:24:10.975Z,1.60
2022-09-06T03:26:38.471Z,1.75
2022-09-06T03:29:06.355Z,1.95
2022-09-06T03:31:34.467Z,1.42
2022-09-06T03:34:02.368Z,1.50
2022-09-06T03:36:31.364Z,1.60
2022-09-06T03:39:07.115Z,1.40
2022-09-06T03:41:34.724Z,1.95
2022-09-06T03:44:02.601Z,1.60
2022-09-06T03:46:35.332Z,1.50
2022-09-06T03:49:05.272Z,1.70
2022-09-06T03:51:34.984Z,1.60
2022-09-06T03:54:02.429Z,1.80
2022-09-06T03:56:30.958Z,1.60
2022-09-06T03:59:02.328Z,1.75
2022-09-06T04:01:31.561Z,1.70
2022-09-06T04:04:01.140Z,1.73
2022-09-06T04:06:29.476Z,1.70
2022-09-06T04:09:00.515Z,1.33
2022-09-06T04:11:28.109Z,1.50
2022-09-06T04:13:55.849Z,1.70
2022-09-06T04:16:23.259Z,1.63
2022-09-06T04:18:51.512Z,1.85
2022-09-06T04:21:21.985Z,1.90
2022-09-06T04:23:49.615Z,1.70
2022-09-06T04:26:18.298Z,2.20
2022-09-06T04:28:46.386Z,1.75
2022-09-06T04:31:15.052Z,1.50
2022-09-06T04:33:45.148Z,1.63
2022-09-06T04:36:13.880Z,1.50
2022-09-06T04:38:42.989Z,1.52
2022-09-06T04:41:11.318Z,1.75
2022-09-06T04:43:40.151Z,1.85
2022-09-06T04:46:10.721Z,1.70
2022-09-06T04:48:38.113Z,1.60
2022-09-06T04:51:05.674Z,1.90
2022-09-06T04:53:33.167Z,1.63
2022-09-06T04:56:00.618Z,1.60
2022-09-06T04:58:28.081Z,1.70
2022-09-06T05:00:57.124Z,1.70
2022-09-06T05:03:24.650Z,1.80
2022-09-06T05:05:52.009Z,1.92
2022-09-06T05:08:19.834Z,1.65
2022-09-06T05:10:47.207Z,1.70
2022-09-06T05:13:14.675Z,1.50
2022-09-06T05:15:42.057Z,1.70
2022-09-06T05:18:14.168Z,1.70
2022-09-06T05:20:43.535Z,1.70
2022-09-06T05:23:11.005Z,1.80
2022-09-06T05:25:38.376Z,1.88
2022-09-06T05:28:05.733Z,1.90
2022-09-06T05:30:33.099Z,1.92
2022-09-06T05:33:00.450Z,1.75
2022-09-06T05:35:29.159Z,1.60
2022-09-06T05:37:56.525Z,1.85
2022-09-06T05:40:23.899Z,1.70
2022-09-06T05:42:51.279Z,1.60
2022-09-06T05:45:18.655Z,1.90
2022-09-06T05:47:46.084Z,1.90
2022-09-06T05:50:13.523Z,1.90
2022-09-06T05:52:42.299Z,1.80
2022-09-06T05:55:10.342Z,1.55
2022-09-06T05:57:37.730Z,1.70
2022-09-06T06:00:05.985Z,1.60
2022-09-06T06:02:39.826Z,1.50
2022-09-06T06:05:07.926Z,2.05
2022-09-06T06:07:35.690Z,1.50
2022-09-06T06:10:04.934Z,1.55
2022-09-06T06:12:32.300Z,1.63
2022-09-06T06:14:59.695Z,1.60
2022-09-06T06:17:27.607Z,1.67
2022-09-06T06:19:55.122Z,1.52
2022-09-06T06:22:22.480Z,1.65
2022-09-06T06:24:49.896Z,1.50
2022-09-06T06:27:18.563Z,1.50
2022-09-06T06:29:45.934Z,1.77
2022-09-06T06:32:13.298Z,1.63
2022-09-06T06:34:40.670Z,1.90
2022-09-06T06:37:08.043Z,1.75
2022-09-06T06:39:35.478Z,1.70
2022-09-06T06:42:03.622Z,1.75
2022-09-06T06:44:53.639Z,1.75
2022-09-06T06:47:21.152Z,1.60
2022-09-06T06:49:49.049Z,1.70
2022-09-06T06:52:16.452Z,1.80
2022-09-06T06:54:43.900Z,1.55
2022-09-06T06:57:12.597Z,1.60
2022-09-06T06:59:40.296Z,2.05
2022-09-06T07:02:09.287Z,1.77
2022-09-06T07:04:36.751Z,1.80
2022-09-06T07:12:40.037Z,2.10
2022-09-06T07:15:08.216Z,2.05
2022-09-06T07:17:36.905Z,1.90
2022-09-06T07:22:39.604Z,2.28
2022-09-06T07:25:08.565Z,2.05
2022-09-06T07:27:51.262Z,2.05
2022-09-06T07:30:19.775Z,2.08
2022-09-06T07:32:48.654Z,1.80
2022-09-06T07:35:16.130Z,2.20
2022-09-06T07:37:43.535Z,2.90
2022-09-06T07:40:11.855Z,2.10
2022-09-06T07:42:39.283Z,2.17
2022-09-06T07:45:07.376Z,2.25
2022-09-06T07:53:15.092Z,2.13
2022-09-06T07:55:45.017Z,2.92
2022-09-06T07:58:12.399Z,2.38
2022-09-06T08:00:41.017Z,2.20
2022-09-06T08:03:08.668Z,2.33
2022-09-06T08:11:13.416Z,2.38
2022-09-06T08:13:41.626Z,2.13
2022-09-06T08:16:11.285Z,2.40
2022-09-06T08:18:38.880Z,2.65
2022-09-06T08:21:12.174Z,2.40
2022-09-06T08:23:42.668Z,2.70
2022-09-06T08:26:10.124Z,2.47
2022-09-06T08:28:37.808Z,2.72
2022-09-06T08:31:09.203Z,2.42
2022-09-06T08:33:37.583Z,2.63
2022-09-06T08:36:05.379Z,2.50
2022-09-06T08:38:34.301Z,2.60
2022-09-06T08:41:10.763Z,2.95
2022-09-06T08:43:39.622Z,2.58
2022-09-06T08:46:08.804Z,2.08
2022-09-06T08:48:39.626Z,2.35
2022-09-06T08:51:24.042Z,2.15
2022-09-06T08:53:55.738Z,2.35
2022-09-06T08:56:25.287Z,2.60
2022-09-06T08:59:00.612Z,2.63
2022-09-06T09:01:31.172Z,2.58
2022-09-06T09:04:00.484Z,2.55
2022-09-06T09:06:28.631Z,2.78
2022-09-06T09:09:01.894Z,2.70
2022-09-06T09:11:33.387Z,2.65
2022-09-06T09:14:05.200Z,2.97
2022-09-06T09:16:33.115Z,2.53
2022-09-06T09:19:02.274Z,2.97
2022-09-06T09:21:32.226Z,3.13
2022-09-06T09:24:04.752Z,2.80
2022-09-06T09:26:35.401Z,3.20
2022-09-06T09:29:03.649Z,3.00
2022-09-06T09:31:36.129Z,2.97
2022-09-06T09:34:04.935Z,3.10
2022-09-06T09:36:32.376Z,3.00
2022-09-06T09:39:01.160Z,3.28
2022-09-06T09:41:30.672Z,3.15
2022-09-06T09:44:02.388Z,3.05
2022-09-06T09:49:07.331Z,3.60
2022-09-06T09:51:35.857Z,3.50
2022-09-06T09:54:06.348Z,2.95
2022-09-06T09:56:38.186Z,3.47
2022-09-06T09:59:09.185Z,3.38
2022-09-06T10:01:39.407Z,3.70
2022-09-06T10:07:09.007Z,3.28
2022-09-06T10:09:39.648Z,3.70
2022-09-06T10:12:07.382Z,3.42
2022-09-06T10:14:43.051Z,3.30
2022-09-06T10:17:19.643Z,3.42
2022-09-06T10:19:48.133Z,3.70
2022-09-06T10:22:25.969Z,3.90
2022-09-06T10:25:09.578Z,3.40
2022-09-06T10:27:55.529Z,3.22
2022-09-06T10:30:30.751Z,4.00
2022-09-06T10:33:02.076Z,3.88
2022-09-06T10:35:32.109Z,3.40
2022-09-06T10:38:32.231Z,3.47
2022-09-06T10:41:17.996Z,3.83
2022-09-06T10:43:53.787Z,3.58
2022-09-06T10:46:27.442Z,3.55
2022-09-06T10:48:55.055Z,3.10
2022-09-06T10:51:31.097Z,3.50
2022-09-06T10:54:09.959Z,3.60
2022-09-06T10:56:42.567Z,3.50
2022-09-06T11:02:17.532Z,3.38
2022-09-06T11:07:38.463Z,3.70
2022-09-06T11:10:11.991Z,3.58
2022-09-06T11:12:45.709Z,3.40
2022-09-06T11:15:16.159Z,3.70
2022-09-06T11:17:50.085Z,3.50
2022-09-06T11:20:22.084Z,3.30
2022-09-06T11:23:15.682Z,3.42
2022-09-06T11:25:55.598Z,3.30
2022-09-06T11:28:29.222Z,3.40
2022-09-06T11:33:30.202Z,3.78
2022-09-06T11:36:16.483Z,3.70
2022-09-06T11:38:44.102Z,3.80
2022-09-06T11:41:16.510Z,3.75
2022-09-06T11:43:47.730Z,3.50
2022-09-06T11:46:52.950Z,4.20
2022-09-06T11:49:37.401Z,3.40
2022-09-06T11:52:38.316Z,4.10
2022-09-06T11:55:14.237Z,3.95
2022-09-06T11:57:42.583Z,4.10
2022-09-06T12:00:19.942Z,4.05
2022-09-06T12:02:47.477Z,3.58
2022-09-06T12:05:28.442Z,3.33
2022-09-06T12:08:34.210Z,4.13
2022-09-06T12:11:27.050Z,4.22
2022-09-06T12:14:03.202Z,4.15
2022-09-06T12:17:12.062Z,4.18
2022-09-06T12:19:44.557Z,3.63
2022-09-06T12:23:06.463Z,3.78
2022-09-06T12:25:57.005Z,3.42
2022-09-06T12:28:41.218Z,3.83
2022-09-06T12:31:31.609Z,4.00
2022-09-06T12:34:00.782Z,4.13
2022-09-06T12:36:33.007Z,4.05
2022-09-06T12:39:01.922Z,4.10
2022-09-06T12:41:40.406Z,3.78
2022-09-06T12:44:10.946Z,3.90
2022-09-06T12:46:39.892Z,3.95
2022-09-06T12:49:09.545Z,4.20
2022-09-06T12:51:42.150Z,3.90
2022-09-06T12:54:20.761Z,4.18
2022-09-06T12:56:48.440Z,3.95
2022-09-06T12:59:19.236Z,4.40
2022-09-06T13:01:51.672Z,4.15
2022-09-06T13:04:28.089Z,4.15
2022-09-06T13:06:57.100Z,4.63
2022-09-06T13:09:28.976Z,4.47
2022-09-06T13:12:03.746Z,4.38
2022-09-06T13:14:34.448Z,4.28
2022-09-06T13:17:02.168Z,4.13
2022-09-06T13:19:33.977Z,4.53
2022-09-06T13:22:05.573Z,4.05
2022-09-06T13:24:46.808Z,4.53
2022-09-06T13:27:25.480Z,4.85
2022-09-06T13:29:57.582Z,4.53
2022-09-06T13:32:25.296Z,4.28
2022-09-06T13:34:56.874Z,4.13
2022-09-06T13:37:26.523Z,4.65
2022-09-06T13:39:54.208Z,4.22
2022-09-06T13:42:27.712Z,4.95
2022-09-06T13:44:58.768Z,4.47
2022-09-06T13:49:57.625Z,4.45
2022-09-06T13:52:29.241Z,4.20
2022-09-06T13:54:57.394Z,3.92
2022-09-06T13:57:24.948Z,4.05
2022-09-06T13:59:52.333Z,4.45
2022-09-06T14:02:20.820Z,4.10
2022-09-06T14:04:49.127Z,4.32
2022-09-06T14:07:16.510Z,4.63
2022-09-06T14:09:45.600Z,4.40
2022-09-06T14:12:14.366Z,4.47
2022-09-06T14:14:41.919Z,4.35
2022-09-06T14:17:09.434Z,4.50
2022-09-06T14:19:38.299Z,4.35
2022-09-06T14:22:06.895Z,4.40
2022-09-06T14:24:34.373Z,3.97
2022-09-06T14:27:04.614Z,4.30
2022-09-06T14:29:35.894Z,4.10
2022-09-06T14:32:04.696Z,4.47
2022-09-06T14:34:34.911Z,4.50
2022-09-06T14:37:02.804Z,4.40
2022-09-06T14:39:32.059Z,4.18
2022-09-06T14:42:00.001Z,4.22
2022-09-06T14:44:28.694Z,4.38
2022-09-06T14:46:56.118Z,4.40
2022-09-06T14:49:25.107Z,4.40
2022-09-06T14:51:53.150Z,4.30
2022-09-06T14:54:24.167Z,4.05
2022-09-06T14:56:58.802Z,3.88
2022-09-06T14:59:28.082Z,4.43
2022-09-06T15:01:57.353Z,4.13
2022-09-06T15:04:26.249Z,4.43
2022-09-06T15:06:55.465Z,4.30
2022-09-06T15:09:22.859Z,4.50
2022-09-06T15:11:52.638Z,4.40
2022-09-06T15:14:22.406Z,4.55
2022-09-06T15:16:55.988Z,4.47
2022-09-06T15:19:25.309Z,4.68
2022-09-06T15:21:53.665Z,4.40
2022-09-06T15:24:21.641Z,4.40
2022-09-06T15:26:49.808Z,4.20
2022-09-06T15:29:17.404Z,4.55
2022-09-06T15:31:50.448Z,4.22
2022-09-06T15:34:18.482Z,4.45
2022-09-06T15:36:47.535Z,4.70
2022-09-06T15:39:16.924Z,4.80
2022-09-06T15:41:46.694Z,4.72
2022-09-06T15:44:17.472Z,4.45
2022-09-06T15:46:47.919Z,5.20
2022-09-06T15:49:17.547Z,4.70
2022-09-06T15:51:45.001Z,4.20
2022-09-06T15:54:17.406Z,4.28
2022-09-06T15:56:44.697Z,4.32
2022-09-06T15:59:13.015Z,4.57
2022-09-06T16:01:41.095Z,4.40
2022-09-06T16:04:08.759Z,5.07
2022-09-06T16:06:39.498Z,4.28
2022-09-06T16:09:08.602Z,5.30
2022-09-06T16:11:37.808Z,4.47
2022-09-06T16:14:05.825Z,4.97
2022-09-06T16:16:34.739Z,4.95
2022-09-06T16:19:05.602Z,4.80
2022-09-06T16:21:34.764Z,4.53
2022-09-06T16:24:03.968Z,5.45
2022-09-06T16:26:33.858Z,6.60
2022-09-06T16:29:10.156Z,5.70
2022-09-06T16:31:40.606Z,5.00
2022-09-06T16:34:08.713Z,4.40
2022-09-06T16:36:36.266Z,4.80
2022-09-06T16:39:06.139Z,4.30
2022-09-06T16:44:04.055Z,4.68
2022-09-06T16:46:31.606Z,4.30
2022-09-06T16:49:00.936Z,4.70
2022-09-06T16:51:29.361Z,4.10
2022-09-06T16:53:56.983Z,4.28
2022-09-06T16:56:25.921Z,4.00
2022-09-06T16:58:54.888Z,4.18
2022-09-06T17:01:24.304Z,3.83
2022-09-06T17:03:52.072Z,4.00
2022-09-06T17:06:20.266Z,3.92
2022-09-06T17:08:47.660Z,4.03
2022-09-06T17:11:16.965Z,4.60
2022-09-06T17:13:45.504Z,4.28
2022-09-06T17:16:30.929Z,3.83
2022-09-06T17:19:01.141Z,3.95
2022-09-06T17:21:29.482Z,4.20
2022-09-06T17:23:58.578Z,4.10
2022-09-06T17:26:26.773Z,4.10
2022-09-06T17:28:54.641Z,3.95
2022-09-06T17:31:25.611Z,3.47
2022-09-06T17:33:53.909Z,3.65
2022-09-06T17:36:24.374Z,3.72
2022-09-06T17:38:53.528Z,4.00
2022-09-06T17:41:22.757Z,3.75
2022-09-06T17:43:50.161Z,3.65
2022-09-06T17:46:17.765Z,4.13
2022-09-06T17:48:45.421Z,3.58
2022-09-06T17:51:12.834Z,4.30
2022-09-06T17:53:43.827Z,3.80
2022-09-06T17:56:13.424Z,3.53
2022-09-06T17:58:41.260Z,4.13
2022-09-06T18:01:10.976Z,3.92
2022-09-06T18:03:39.687Z,3.78
2022-09-06T18:06:09.142Z,3.65
2022-09-06T18:08:37.175Z,4.20
2022-09-06T18:11:09.740Z,4.03
2022-09-06T18:13:37.136Z,3.65
2022-09-06T18:16:05.288Z,3.80
2022-09-06T18:18:33.309Z,4.05
2022-09-06T18:21:00.977Z,3.83
2022-09-06T18:23:29.778Z,3.50
2022-09-06T18:25:57.956Z,3.55
2022-09-06T18:28:26.693Z,3.75
2022-09-06T18:30:54.267Z,3.40
2022-09-06T18:33:23.627Z,3.67
2022-09-06T18:35:51.195Z,4.03
2022-09-06T18:38:19.038Z,3.80
2022-09-06T18:40:51.884Z,3.33
2022-09-06T18:43:19.643Z,3.20
2022-09-06T18:45:48.362Z,3.80
2022-09-06T18:48:16.590Z,3.58
2022-09-06T18:50:43.981Z,3.83
2022-09-06T18:53:11.696Z,3.65
2022-09-06T18:55:40.311Z,3.90
2022-09-06T18:58:07.713Z,3.25
2022-09-06T19:00:35.328Z,3.53
2022-09-06T19:03:04.478Z,3.58
2022-09-06T19:05:31.940Z,3.83
2022-09-06T19:07:59.298Z,3.65
2022-09-06T19:10:27.359Z,3.92
2022-09-06T19:12:54.854Z,3.60
2022-09-06T19:15:22.420Z,3.60
2022-09-06T19:17:50.328Z,3.72
2022-09-06T19:20:19.533Z,3.92
2022-09-06T19:22:46.968Z,3.92
2022-09-06T19:25:14.345Z,3.97
2022-09-06T19:27:45.578Z,4.50
2022-09-06T19:32:42.896Z,3.47
2022-09-06T19:35:10.590Z,4.03
2022-09-06T19:37:39.629Z,3.53
2022-09-06T19:40:08.197Z,3.67
2022-09-06T19:42:35.603Z,3.72
2022-09-06T19:45:02.991Z,3.47
2022-09-06T19:47:30.359Z,3.90
2022-09-06T19:49:57.714Z,3.50
2022-09-06T19:52:25.085Z,3.40
2022-09-06T19:54:54.243Z,3.55
2022-09-06T19:57:21.599Z,3.95
2022-09-06T19:59:48.988Z,4.10
2022-09-06T20:02:16.422Z,3.30
2022-09-06T20:04:43.832Z,3.38
2022-09-06T20:07:11.198Z,3.50
2022-09-06T20:09:38.579Z,3.95
2022-09-06T20:12:07.651Z,3.60
2022-09-06T20:14:35.021Z,3.65
2022-09-06T20:17:29.243Z,3.45
2022-09-06T20:19:49.892Z,3.30
2022-09-06T20:22:17.299Z,3.60
2022-09-06T20:24:44.658Z,3.10
2022-09-06T20:27:13.751Z,3.28
2022-09-06T20:29:41.336Z,3.22
2022-09-06T20:32:08.712Z,3.13
2022-09-06T20:34:36.164Z,3.30
2022-09-06T20:37:03.543Z,3.75
2022-09-06T20:39:30.990Z,3.40
2022-09-06T20:41:58.403Z,3.42
2022-09-06T20:44:27.088Z,3.30
2022-09-06T20:46:54.948Z,3.25
2022-09-06T20:49:23.110Z,3.25
2022-09-06T20:51:50.503Z,3.53
2022-09-06T20:54:17.875Z,3.20
2022-09-06T20:56:45.258Z,3.17
2022-09-06T20:59:13.705Z,3.38
2022-09-06T21:01:44.764Z,3.05
2022-09-06T21:04:13.323Z,3.60
2022-09-06T21:06:41.258Z,3.22
2022-09-06T21:09:09.893Z,3.38
2022-09-06T21:11:37.469Z,3.20
2022-09-06T21:14:05.797Z,3.10
2022-09-06T21:16:33.842Z,3.00
2022-09-06T21:19:04.229Z,3.10
2022-09-06T21:21:32.534Z,2.65
2022-09-06T21:24:00.987Z,3.28
2022-09-06T21:26:28.414Z,3.00
2022-09-06T21:28:55.947Z,3.20
2022-09-06T21:31:25.196Z,3.60
2022-09-06T21:33:53.716Z,3.08
2022-09-06T21:36:24.146Z,3.13
2022-09-06T21:38:54.195Z,3.45
2022-09-06T21:41:21.857Z,3.28
2022-09-06T21:43:52.828Z,2.50
2022-09-06T21:46:21.402Z,3.38
2022-09-06T21:48:50.330Z,2.90
2022-09-06T21:51:19.174Z,3.17
2022-09-06T21:53:49.188Z,2.85
2022-09-06T21:56:19.492Z,2.92
2022-09-06T21:58:47.749Z,3.20
2022-09-06T22:01:15.995Z,3.30
2022-09-06T22:03:43.501Z,3.05
2022-09-06T22:06:12.447Z,2.72
2022-09-06T22:08:42.037Z,3.30
2022-09-06T22:11:13.037Z,2.95
2022-09-06T22:13:40.703Z,3.20
2022-09-06T22:16:08.766Z,2.78
2022-09-06T22:18:36.659Z,2.90
2022-09-06T22:21:06.353Z,3.03
2022-09-06T22:23:34.043Z,2.58
2022-09-06T22:26:03.033Z,3.00
2022-09-06T22:28:31.971Z,2.92
2022-09-06T22:30:59.487Z,2.67
2022-09-06T22:33:27.427Z,2.80
2022-09-06T22:35:55.236Z,2.53
2022-09-06T22:38:23.051Z,2.67
2022-09-06T22:40:50.419Z,2.75
2022-09-06T22:43:17.857Z,2.47
2022-09-06T22:45:51.731Z,2.70
2022-09-06T22:48:19.835Z,2.50
2022-09-06T22:50:49.261Z,2.75
2022-09-06T22:53:18.113Z,2.75
2022-09-06T22:55:53.278Z,2.58
2022-09-06T22:58:21.235Z,2.97
2022-09-06T23:00:52.155Z,2.63
2022-09-06T23:03:19.668Z,2.70
2022-09-06T23:05:47.099Z,2.97
2022-09-06T23:08:17.714Z,2.85
2022-09-06T23:10:45.557Z,2.95
2022-09-06T23:13:13.646Z,2.80
2022-09-06T23:15:41.729Z,2.75
2022-09-06T23:18:14.089Z,2.67
2022-09-06T23:20:41.802Z,2.72
2022-09-06T23:23:15.174Z,3.03
2022-09-06T23:25:42.620Z,2.80
2022-09-06T23:28:13.689Z,2.55
2022-09-06T23:30:41.530Z,3.00
2022-09-06T23:33:14.092Z,3.00
2022-09-06T23:35:43.607Z,2.70
2022-09-06T23:38:10.998Z,2.70
2022-09-06T23:40:38.355Z,2.65
2022-09-06T23:43:05.735Z,2.47
2022-09-06T23:45:34.099Z,2.83
2022-09-06T23:48:01.454Z,2.25
2022-09-06T23:50:30.161Z,2.78
2022-09-06T23:52:58.335Z,2.50
2022-09-06T23:55:25.745Z,2.80
2022-09-06T23:57:53.119Z,2.58
